Alpha, Idaho
Current Conditions -  °F | °C
As of 7:51 PM on Wednesday 22 Oct 2014 (Local Time) from KMYL Reporting Station
Overcast Overcast  
Wind Chill: 42°   Ceiling: 8500
Heat Index: 47°   Visibility: 10mi
Dew Point: 36°   Wind: 12mph
Humidity: 66%   Direction: 170°S
Pressure: 30.02"   Gusts: NA
Location:  44.4236°N, 115.8°W
Report Text: KMYL 230151Z AUTO 17010KT 10SM OVC085 08/02 A3002 RMK AO2 SLP169 T00830022
Loading
Personal Weather Stations






























Interactive Weather Map
Tropical Storm Tracking
New forecast layout! Learn more

10-Day Weather Forecast

Advertisements
Track Severe Weather on mobile